sensor_id;sensor_type;location;lat;lon;timestamp;P1;durP1;ratioP1;P2;durP2;ratioP2
10461;SDS011;5278;42.656;23.374;2023-02-08T00:00:50;17.70;;;9.70;;
10461;SDS011;5278;42.656;23.374;2023-02-08T00:03:17;17.20;;;8.97;;
10461;SDS011;5278;42.656;23.374;2023-02-08T00:05:45;18.20;;;10.13;;
10461;SDS011;5278;42.656;23.374;2023-02-08T00:08:12;16.63;;;9.40;;
10461;SDS011;5278;42.656;23.374;2023-02-08T00:10:39;16.80;;;9.63;;
10461;SDS011;5278;42.656;23.374;2023-02-08T00:13:06;16.53;;;9.67;;
10461;SDS011;5278;42.656;23.374;2023-02-08T00:15:33;15.80;;;9.77;;
10461;SDS011;5278;42.656;23.374;2023-02-08T00:17:59;14.87;;;9.20;;
10461;SDS011;5278;42.656;23.374;2023-02-08T00:20:26;18.40;;;10.17;;
10461;SDS011;5278;42.656;23.374;2023-02-08T00:22:55;17.03;;;10.13;;
10461;SDS011;5278;42.656;23.374;2023-02-08T00:25:21;16.17;;;10.17;;
10461;SDS011;5278;42.656;23.374;2023-02-08T00:27:48;12.83;;;9.50;;
10461;SDS011;5278;42.656;23.374;2023-02-08T00:30:15;14.37;;;9.07;;
10461;SDS011;5278;42.656;23.374;2023-02-08T00:32:42;17.77;;;11.13;;
10461;SDS011;5278;42.656;23.374;2023-02-08T00:35:09;17.53;;;9.70;;
10461;SDS011;5278;42.656;23.374;2023-02-08T00:37:36;15.77;;;9.47;;
10461;SDS011;5278;42.656;23.374;2023-02-08T00:40:04;17.20;;;9.53;;
10461;SDS011;5278;42.656;23.374;2023-02-08T00:42:32;15.57;;;10.27;;
10461;SDS011;5278;42.656;23.374;2023-02-08T00:44:59;17.13;;;10.27;;
10461;SDS011;5278;42.656;23.374;2023-02-08T00:47:25;16.57;;;10.53;;
10461;SDS011;5278;42.656;23.374;2023-02-08T00:49:52;15.57;;;9.70;;
10461;SDS011;5278;42.656;23.374;2023-02-08T00:52:20;16.47;;;9.90;;
10461;SDS011;5278;42.656;23.374;2023-02-08T00:54:47;15.53;;;10.30;;
10461;SDS011;5278;42.656;23.374;2023-02-08T00:57:15;17.07;;;10.27;;
10461;SDS011;5278;42.656;23.374;2023-02-08T00:59:42;15.03;;;10.17;;
10461;SDS011;5278;42.656;23.374;2023-02-08T01:02:09;20.00;;;10.20;;
10461;SDS011;5278;42.656;23.374;2023-02-08T01:04:36;17.70;;;10.80;;
10461;SDS011;5278;42.656;23.374;2023-02-08T01:07:03;16.67;;;10.83;;
10461;SDS011;5278;42.656;23.374;2023-02-08T01:09:30;15.90;;;10.13;;
10461;SDS011;5278;42.656;23.374;2023-02-08T01:11:58;14.00;;;10.00;;
10461;SDS011;5278;42.656;23.374;2023-02-08T01:14:26;19.77;;;11.07;;
10461;SDS011;5278;42.656;23.374;2023-02-08T01:16:53;17.53;;;11.00;;
10461;SDS011;5278;42.656;23.374;2023-02-08T01:19:20;18.63;;;10.77;;
10461;SDS011;5278;42.656;23.374;2023-02-08T01:21:47;18.43;;;11.40;;
10461;SDS011;5278;42.656;23.374;2023-02-08T01:24:14;17.63;;;10.60;;
10461;SDS011;5278;42.656;23.374;2023-02-08T01:26:41;16.67;;;9.80;;
10461;SDS011;5278;42.656;23.374;2023-02-08T01:29:08;21.17;;;11.70;;
10461;SDS011;5278;42.656;23.374;2023-02-08T01:31:37;17.37;;;10.33;;
10461;SDS011;5278;42.656;23.374;2023-02-08T01:34:07;15.87;;;10.27;;
10461;SDS011;5278;42.656;23.374;2023-02-08T01:36:35;17.60;;;11.20;;
10461;SDS011;5278;42.656;23.374;2023-02-08T01:39:03;19.03;;;10.60;;
10461;SDS011;5278;42.656;23.374;2023-02-08T01:41:31;18.83;;;10.90;;
10461;SDS011;5278;42.656;23.374;2023-02-08T01:44:01;19.03;;;11.30;;
10461;SDS011;5278;42.656;23.374;2023-02-08T01:46:30;16.30;;;10.63;;
10461;SDS011;5278;42.656;23.374;2023-02-08T01:49:00;17.67;;;11.60;;
10461;SDS011;5278;42.656;23.374;2023-02-08T01:51:30;16.93;;;10.67;;
10461;SDS011;5278;42.656;23.374;2023-02-08T01:53:59;20.07;;;12.07;;
10461;SDS011;5278;42.656;23.374;2023-02-08T01:56:29;24.50;;;12.50;;
10461;SDS011;5278;42.656;23.374;2023-02-08T01:58:59;17.83;;;10.50;;
10461;SDS011;5278;42.656;23.374;2023-02-08T02:01:29;18.30;;;11.80;;
10461;SDS011;5278;42.656;23.374;2023-02-08T02:03:57;17.27;;;12.03;;
10461;SDS011;5278;42.656;23.374;2023-02-08T02:06:29;19.60;;;13.27;;
10461;SDS011;5278;42.656;23.374;2023-02-08T02:09:02;15.77;;;11.23;;
10461;SDS011;5278;42.656;23.374;2023-02-08T02:11:35;17.67;;;11.40;;
10461;SDS011;5278;42.656;23.374;2023-02-08T02:14:02;18.57;;;11.50;;
10461;SDS011;5278;42.656;23.374;2023-02-08T02:16:30;18.53;;;11.27;;
10461;SDS011;5278;42.656;23.374;2023-02-08T02:18:57;18.63;;;11.23;;
10461;SDS011;5278;42.656;23.374;2023-02-08T02:21:30;19.47;;;11.93;;
10461;SDS011;5278;42.656;23.374;2023-02-08T02:33:00;17.33;;;11.20;;
10461;SDS011;5278;42.656;23.374;2023-02-08T02:35:41;18.50;;;11.93;;
10461;SDS011;5278;42.656;23.374;2023-02-08T02:38:16;21.87;;;12.63;;
10461;SDS011;5278;42.656;23.374;2023-02-08T02:40:54;17.80;;;11.63;;
10461;SDS011;5278;42.656;23.374;2023-02-08T02:43:30;22.23;;;12.30;;
10461;SDS011;5278;42.656;23.374;2023-02-08T02:46:08;17.70;;;11.23;;
10461;SDS011;5278;42.656;23.374;2023-02-08T02:48:44;18.37;;;11.13;;
10461;SDS011;5278;42.656;23.374;2023-02-08T02:51:17;19.77;;;11.90;;
10461;SDS011;5278;42.656;23.374;2023-02-08T02:53:52;23.97;;;11.90;;
10461;SDS011;5278;42.656;23.374;2023-02-08T02:56:23;19.37;;;12.23;;
10461;SDS011;5278;42.656;23.374;2023-02-08T02:58:55;23.23;;;13.43;;
10461;SDS011;5278;42.656;23.374;2023-02-08T03:01:27;26.47;;;15.63;;
10461;SDS011;5278;42.656;23.374;2023-02-08T03:03:55;31.30;;;16.43;;
10461;SDS011;5278;42.656;23.374;2023-02-08T03:06:26;25.53;;;15.80;;
10461;SDS011;5278;42.656;23.374;2023-02-08T03:12:20;29.97;;;15.10;;
10461;SDS011;5278;42.656;23.374;2023-02-08T03:15:02;28.20;;;15.47;;
10461;SDS011;5278;42.656;23.374;2023-02-08T03:17:38;32.50;;;16.33;;
10461;SDS011;5278;42.656;23.374;2023-02-08T03:20:19;25.93;;;14.97;;
10461;SDS011;5278;42.656;23.374;2023-02-08T03:22:52;26.17;;;14.80;;
10461;SDS011;5278;42.656;23.374;2023-02-08T03:25:26;28.60;;;16.47;;
10461;SDS011;5278;42.656;23.374;2023-02-08T03:27:59;25.80;;;15.60;;
10461;SDS011;5278;42.656;23.374;2023-02-08T03:30:32;27.20;;;15.23;;
10461;SDS011;5278;42.656;23.374;2023-02-08T03:33:13;25.57;;;15.80;;
10461;SDS011;5278;42.656;23.374;2023-02-08T03:35:48;23.03;;;13.73;;
10461;SDS011;5278;42.656;23.374;2023-02-08T03:38:22;21.67;;;13.73;;
10461;SDS011;5278;42.656;23.374;2023-02-08T03:40:54;22.60;;;14.07;;
10461;SDS011;5278;42.656;23.374;2023-02-08T03:43:27;23.00;;;14.03;;
10461;SDS011;5278;42.656;23.374;2023-02-08T03:46:00;24.27;;;14.20;;
10461;SDS011;5278;42.656;23.374;2023-02-08T03:48:32;24.90;;;13.10;;
10461;SDS011;5278;42.656;23.374;2023-02-08T03:51:03;24.00;;;13.50;;
10461;SDS011;5278;42.656;23.374;2023-02-08T03:53:32;22.70;;;14.00;;
10461;SDS011;5278;42.656;23.374;2023-02-08T03:56:06;22.40;;;13.53;;
10461;SDS011;5278;42.656;23.374;2023-02-08T03:58:37;28.83;;;15.17;;
10461;SDS011;5278;42.656;23.374;2023-02-08T04:01:10;21.10;;;14.23;;
10461;SDS011;5278;42.656;23.374;2023-02-08T04:03:41;22.83;;;14.00;;
10461;SDS011;5278;42.656;23.374;2023-02-08T04:06:11;28.30;;;15.47;;
10461;SDS011;5278;42.656;23.374;2023-02-08T04:08:38;23.50;;;13.53;;
10461;SDS011;5278;42.656;23.374;2023-02-08T04:11:05;23.83;;;13.93;;
10461;SDS011;5278;42.656;23.374;2023-02-08T04:13:32;23.53;;;14.30;;
10461;SDS011;5278;42.656;23.374;2023-02-08T04:15:59;25.97;;;15.57;;
10461;SDS011;5278;42.656;23.374;2023-02-08T04:18:25;25.47;;;16.17;;
10461;SDS011;5278;42.656;23.374;2023-02-08T04:20:52;23.20;;;14.20;;
10461;SDS011;5278;42.656;23.374;2023-02-08T04:23:21;24.03;;;13.67;;
10461;SDS011;5278;42.656;23.374;2023-02-08T04:25:47;27.50;;;15.63;;
10461;SDS011;5278;42.656;23.374;2023-02-08T04:28:14;23.23;;;15.40;;
10461;SDS011;5278;42.656;23.374;2023-02-08T04:30:41;25.47;;;16.17;;
10461;SDS011;5278;42.656;23.374;2023-02-08T04:33:08;28.77;;;15.33;;
10461;SDS011;5278;42.656;23.374;2023-02-08T04:35:37;29.30;;;15.60;;
10461;SDS011;5278;42.656;23.374;2023-02-08T04:38:04;28.53;;;15.27;;
10461;SDS011;5278;42.656;23.374;2023-02-08T04:40:32;30.07;;;15.70;;
10461;SDS011;5278;42.656;23.374;2023-02-08T04:42:59;27.70;;;15.40;;
10461;SDS011;5278;42.656;23.374;2023-02-08T04:45:26;23.63;;;15.53;;
10461;SDS011;5278;42.656;23.374;2023-02-08T04:47:54;26.37;;;15.27;;
10461;SDS011;5278;42.656;23.374;2023-02-08T04:50:21;25.30;;;15.73;;
10461;SDS011;5278;42.656;23.374;2023-02-08T04:52:47;28.87;;;15.47;;
10461;SDS011;5278;42.656;23.374;2023-02-08T04:55:14;27.60;;;16.53;;
10461;SDS011;5278;42.656;23.374;2023-02-08T04:57:42;25.63;;;15.90;;
10461;SDS011;5278;42.656;23.374;2023-02-08T05:00:10;32.63;;;16.27;;
10461;SDS011;5278;42.656;23.374;2023-02-08T05:02:37;27.53;;;16.27;;
10461;SDS011;5278;42.656;23.374;2023-02-08T05:05:04;28.80;;;17.07;;
10461;SDS011;5278;42.656;23.374;2023-02-08T05:07:31;28.17;;;16.13;;
10461;SDS011;5278;42.656;23.374;2023-02-08T05:09:58;23.83;;;15.17;;
10461;SDS011;5278;42.656;23.374;2023-02-08T05:12:25;30.40;;;17.73;;
10461;SDS011;5278;42.656;23.374;2023-02-08T05:14:53;26.60;;;16.27;;
10461;SDS011;5278;42.656;23.374;2023-02-08T05:17:20;30.80;;;17.10;;
10461;SDS011;5278;42.656;23.374;2023-02-08T05:19:47;29.60;;;16.93;;
10461;SDS011;5278;42.656;23.374;2023-02-08T05:22:14;27.93;;;16.53;;
10461;SDS011;5278;42.656;23.374;2023-02-08T05:24:41;28.03;;;16.27;;
10461;SDS011;5278;42.656;23.374;2023-02-08T05:27:08;31.80;;;16.57;;
10461;SDS011;5278;42.656;23.374;2023-02-08T05:29:35;28.87;;;18.03;;
10461;SDS011;5278;42.656;23.374;2023-02-08T05:32:03;35.10;;;18.83;;
10461;SDS011;5278;42.656;23.374;2023-02-08T05:34:30;31.70;;;18.43;;
10461;SDS011;5278;42.656;23.374;2023-02-08T05:36:57;28.33;;;16.53;;
10461;SDS011;5278;42.656;23.374;2023-02-08T05:39:24;31.90;;;18.53;;
10461;SDS011;5278;42.656;23.374;2023-02-08T05:41:51;28.30;;;17.87;;
10461;SDS011;5278;42.656;23.374;2023-02-08T05:44:18;29.73;;;17.73;;
10461;SDS011;5278;42.656;23.374;2023-02-08T05:46:45;28.83;;;16.53;;
10461;SDS011;5278;42.656;23.374;2023-02-08T05:49:13;31.23;;;16.60;;
10461;SDS011;5278;42.656;23.374;2023-02-08T05:51:40;29.00;;;18.40;;
10461;SDS011;5278;42.656;23.374;2023-02-08T05:54:07;32.03;;;19.97;;
10461;SDS011;5278;42.656;23.374;2023-02-08T05:56:34;34.50;;;19.20;;
10461;SDS011;5278;42.656;23.374;2023-02-08T05:59:00;27.23;;;16.60;;
10461;SDS011;5278;42.656;23.374;2023-02-08T06:01:28;31.47;;;17.70;;
10461;SDS011;5278;42.656;23.374;2023-02-08T06:03:56;37.00;;;17.57;;
10461;SDS011;5278;42.656;23.374;2023-02-08T06:06:25;29.60;;;16.77;;
10461;SDS011;5278;42.656;23.374;2023-02-08T06:08:52;29.83;;;18.07;;
10461;SDS011;5278;42.656;23.374;2023-02-08T06:11:19;31.83;;;18.67;;
10461;SDS011;5278;42.656;23.374;2023-02-08T06:13:46;30.77;;;18.50;;
10461;SDS011;5278;42.656;23.374;2023-02-08T06:16:13;32.90;;;18.33;;
10461;SDS011;5278;42.656;23.374;2023-02-08T06:18:40;29.33;;;17.97;;
10461;SDS011;5278;42.656;23.374;2023-02-08T06:21:07;30.70;;;17.57;;
10461;SDS011;5278;42.656;23.374;2023-02-08T06:23:38;29.03;;;17.33;;
10461;SDS011;5278;42.656;23.374;2023-02-08T06:26:05;28.80;;;17.37;;
10461;SDS011;5278;42.656;23.374;2023-02-08T06:28:32;28.90;;;18.83;;
10461;SDS011;5278;42.656;23.374;2023-02-08T06:30:58;31.33;;;20.10;;
10461;SDS011;5278;42.656;23.374;2023-02-08T06:33:25;27.70;;;16.93;;
10461;SDS011;5278;42.656;23.374;2023-02-08T06:35:52;25.77;;;17.13;;
10461;SDS011;5278;42.656;23.374;2023-02-08T06:38:19;32.83;;;17.27;;
10461;SDS011;5278;42.656;23.374;2023-02-08T06:40:48;31.27;;;18.10;;
10461;SDS011;5278;42.656;23.374;2023-02-08T06:43:15;30.53;;;17.07;;
10461;SDS011;5278;42.656;23.374;2023-02-08T06:45:43;27.50;;;17.97;;
10461;SDS011;5278;42.656;23.374;2023-02-08T06:48:10;31.47;;;18.80;;
10461;SDS011;5278;42.656;23.374;2023-02-08T06:50:37;29.23;;;19.17;;
10461;SDS011;5278;42.656;23.374;2023-02-08T06:53:04;32.10;;;19.13;;
10461;SDS011;5278;42.656;23.374;2023-02-08T06:55:31;34.27;;;20.40;;
10461;SDS011;5278;42.656;23.374;2023-02-08T06:57:59;27.63;;;17.40;;
10461;SDS011;5278;42.656;23.374;2023-02-08T07:00:26;28.73;;;18.30;;
10461;SDS011;5278;42.656;23.374;2023-02-08T07:02:53;30.07;;;18.33;;
10461;SDS011;5278;42.656;23.374;2023-02-08T07:05:20;29.57;;;20.40;;
10461;SDS011;5278;42.656;23.374;2023-02-08T07:07:46;33.43;;;20.20;;
10461;SDS011;5278;42.656;23.374;2023-02-08T07:10:13;35.50;;;22.27;;
10461;SDS011;5278;42.656;23.374;2023-02-08T07:12:41;30.23;;;20.70;;
10461;SDS011;5278;42.656;23.374;2023-02-08T07:15:09;32.13;;;20.40;;
10461;SDS011;5278;42.656;23.374;2023-02-08T07:17:37;27.47;;;19.93;;
10461;SDS011;5278;42.656;23.374;2023-02-08T07:20:04;28.73;;;20.00;;
10461;SDS011;5278;42.656;23.374;2023-02-08T07:22:32;30.33;;;20.17;;
10461;SDS011;5278;42.656;23.374;2023-02-08T07:24:59;28.60;;;19.90;;
10461;SDS011;5278;42.656;23.374;2023-02-08T07:27:26;29.43;;;19.17;;
10461;SDS011;5278;42.656;23.374;2023-02-08T07:29:53;27.47;;;19.50;;
10461;SDS011;5278;42.656;23.374;2023-02-08T07:32:21;30.43;;;20.17;;
10461;SDS011;5278;42.656;23.374;2023-02-08T07:34:48;31.97;;;20.20;;
10461;SDS011;5278;42.656;23.374;2023-02-08T07:37:15;27.43;;;19.60;;
10461;SDS011;5278;42.656;23.374;2023-02-08T07:39:42;31.63;;;19.50;;
10461;SDS011;5278;42.656;23.374;2023-02-08T07:42:09;31.60;;;23.00;;
10461;SDS011;5278;42.656;23.374;2023-02-08T07:44:36;45.03;;;29.80;;
10461;SDS011;5278;42.656;23.374;2023-02-08T07:47:03;32.83;;;20.13;;
10461;SDS011;5278;42.656;23.374;2023-02-08T07:49:32;29.27;;;21.43;;
10461;SDS011;5278;42.656;23.374;2023-02-08T07:51:59;26.83;;;18.30;;
10461;SDS011;5278;42.656;23.374;2023-02-08T07:54:26;25.97;;;18.43;;
10461;SDS011;5278;42.656;23.374;2023-02-08T07:56:53;27.87;;;19.20;;
10461;SDS011;5278;42.656;23.374;2023-02-08T07:59:20;27.87;;;18.27;;
10461;SDS011;5278;42.656;23.374;2023-02-08T08:01:47;20.50;;;14.90;;
10461;SDS011;5278;42.656;23.374;2023-02-08T08:04:14;25.07;;;15.67;;
10461;SDS011;5278;42.656;23.374;2023-02-08T08:06:42;28.17;;;17.20;;
10461;SDS011;5278;42.656;23.374;2023-02-08T08:09:10;24.10;;;17.67;;
10461;SDS011;5278;42.656;23.374;2023-02-08T08:11:39;24.57;;;18.43;;
10461;SDS011;5278;42.656;23.374;2023-02-08T08:14:06;24.60;;;19.03;;
10461;SDS011;5278;42.656;23.374;2023-02-08T08:16:33;27.00;;;19.30;;
10461;SDS011;5278;42.656;23.374;2023-02-08T08:19:00;27.20;;;18.83;;
10461;SDS011;5278;42.656;23.374;2023-02-08T08:21:27;23.47;;;18.80;;
10461;SDS011;5278;42.656;23.374;2023-02-08T08:23:55;27.70;;;20.47;;
10461;SDS011;5278;42.656;23.374;2023-02-08T08:26:22;24.43;;;18.43;;
10461;SDS011;5278;42.656;23.374;2023-02-08T08:28:48;26.63;;;19.93;;
10461;SDS011;5278;42.656;23.374;2023-02-08T08:31:16;29.57;;;20.63;;
10461;SDS011;5278;42.656;23.374;2023-02-08T08:33:45;26.17;;;20.17;;
10461;SDS011;5278;42.656;23.374;2023-02-08T08:36:12;25.20;;;19.93;;
10461;SDS011;5278;42.656;23.374;2023-02-08T08:38:39;25.73;;;18.90;;
10461;SDS011;5278;42.656;23.374;2023-02-08T08:41:08;29.10;;;19.27;;
10461;SDS011;5278;42.656;23.374;2023-02-08T08:43:36;24.90;;;19.57;;
10461;SDS011;5278;42.656;23.374;2023-02-08T08:46:04;29.93;;;20.43;;
10461;SDS011;5278;42.656;23.374;2023-02-08T08:48:31;27.00;;;18.40;;
10461;SDS011;5278;42.656;23.374;2023-02-08T08:50:58;25.07;;;18.77;;
10461;SDS011;5278;42.656;23.374;2023-02-08T08:53:25;25.13;;;18.40;;
10461;SDS011;5278;42.656;23.374;2023-02-08T08:55:52;30.63;;;19.40;;
10461;SDS011;5278;42.656;23.374;2023-02-08T08:58:20;27.33;;;18.67;;
10461;SDS011;5278;42.656;23.374;2023-02-08T09:00:47;28.57;;;19.47;;
10461;SDS011;5278;42.656;23.374;2023-02-08T09:03:14;35.90;;;23.57;;
10461;SDS011;5278;42.656;23.374;2023-02-08T09:05:41;25.53;;;17.47;;
10461;SDS011;5278;42.656;23.374;2023-02-08T09:08:07;26.20;;;18.70;;
10461;SDS011;5278;42.656;23.374;2023-02-08T09:10:34;27.37;;;18.73;;
10461;SDS011;5278;42.656;23.374;2023-02-08T09:13:01;30.23;;;19.80;;
10461;SDS011;5278;42.656;23.374;2023-02-08T09:15:29;24.23;;;15.57;;
10461;SDS011;5278;42.656;23.374;2023-02-08T09:17:56;16.17;;;12.60;;
10461;SDS011;5278;42.656;23.374;2023-02-08T09:20:23;18.23;;;12.00;;
10461;SDS011;5278;42.656;23.374;2023-02-08T09:22:50;21.60;;;12.97;;
10461;SDS011;5278;42.656;23.374;2023-02-08T09:25:17;17.27;;;12.97;;
10461;SDS011;5278;42.656;23.374;2023-02-08T09:27:44;21.23;;;14.57;;
10461;SDS011;5278;42.656;23.374;2023-02-08T09:30:11;19.60;;;14.00;;
10461;SDS011;5278;42.656;23.374;2023-02-08T09:32:40;21.47;;;15.27;;
10461;SDS011;5278;42.656;23.374;2023-02-08T09:35:07;26.10;;;16.27;;
10461;SDS011;5278;42.656;23.374;2023-02-08T09:37:35;24.73;;;15.90;;
10461;SDS011;5278;42.656;23.374;2023-02-08T09:40:02;23.03;;;15.80;;
10461;SDS011;5278;42.656;23.374;2023-02-08T09:42:32;21.87;;;14.13;;
10461;SDS011;5278;42.656;23.374;2023-02-08T09:45:10;19.80;;;12.27;;
10461;SDS011;5278;42.656;23.374;2023-02-08T09:47:52;14.07;;;10.57;;
10461;SDS011;5278;42.656;23.374;2023-02-08T09:50:27;18.73;;;10.57;;
10461;SDS011;5278;42.656;23.374;2023-02-08T09:53:02;17.40;;;11.60;;
10461;SDS011;5278;42.656;23.374;2023-02-08T09:55:37;16.03;;;10.83;;
10461;SDS011;5278;42.656;23.374;2023-02-08T09:58:12;16.63;;;11.50;;
10461;SDS011;5278;42.656;23.374;2023-02-08T10:00:45;13.83;;;10.43;;
10461;SDS011;5278;42.656;23.374;2023-02-08T10:03:20;19.47;;;12.77;;
10461;SDS011;5278;42.656;23.374;2023-02-08T10:05:52;17.33;;;11.60;;
10461;SDS011;5278;42.656;23.374;2023-02-08T10:08:20;20.77;;;13.20;;
10461;SDS011;5278;42.656;23.374;2023-02-08T10:10:49;21.67;;;13.07;;
10461;SDS011;5278;42.656;23.374;2023-02-08T10:13:24;21.77;;;13.33;;
10461;SDS011;5278;42.656;23.374;2023-02-08T10:16:12;21.80;;;12.17;;
10461;SDS011;5278;42.656;23.374;2023-02-08T10:18:53;16.73;;;12.07;;
10461;SDS011;5278;42.656;23.374;2023-02-08T10:21:33;18.57;;;12.77;;
10461;SDS011;5278;42.656;23.374;2023-02-08T10:27:06;22.80;;;12.07;;
10461;SDS011;5278;42.656;23.374;2023-02-08T10:29:47;17.60;;;11.77;;
10461;SDS011;5278;42.656;23.374;2023-02-08T10:32:36;20.60;;;13.03;;
10461;SDS011;5278;42.656;23.374;2023-02-08T10:35:11;15.13;;;11.00;;
10461;SDS011;5278;42.656;23.374;2023-02-08T10:37:41;18.47;;;11.40;;
10461;SDS011;5278;42.656;23.374;2023-02-08T10:40:14;20.47;;;12.73;;
10461;SDS011;5278;42.656;23.374;2023-02-08T10:42:50;15.43;;;10.37;;
10461;SDS011;5278;42.656;23.374;2023-02-08T10:45:25;19.27;;;11.73;;
10461;SDS011;5278;42.656;23.374;2023-02-08T10:47:55;18.17;;;11.60;;
10461;SDS011;5278;42.656;23.374;2023-02-08T10:50:31;18.23;;;13.67;;
10461;SDS011;5278;42.656;23.374;2023-02-08T10:53:01;15.13;;;10.83;;
10461;SDS011;5278;42.656;23.374;2023-02-08T10:55:29;16.47;;;11.50;;
10461;SDS011;5278;42.656;23.374;2023-02-08T10:57:57;18.80;;;12.43;;
10461;SDS011;5278;42.656;23.374;2023-02-08T11:00:26;28.63;;;14.63;;
10461;SDS011;5278;42.656;23.374;2023-02-08T11:02:57;19.43;;;11.43;;
10461;SDS011;5278;42.656;23.374;2023-02-08T11:05:32;20.73;;;12.70;;
10461;SDS011;5278;42.656;23.374;2023-02-08T11:08:04;22.77;;;11.57;;
10461;SDS011;5278;42.656;23.374;2023-02-08T11:10:33;19.90;;;11.63;;
10461;SDS011;5278;42.656;23.374;2023-02-08T11:13:02;17.37;;;10.23;;
10461;SDS011;5278;42.656;23.374;2023-02-08T11:15:34;15.80;;;10.27;;
10461;SDS011;5278;42.656;23.374;2023-02-08T11:18:04;14.60;;;9.87;;
10461;SDS011;5278;42.656;23.374;2023-02-08T11:20:35;14.03;;;9.70;;
10461;SDS011;5278;42.656;23.374;2023-02-08T11:23:04;17.87;;;11.50;;
10461;SDS011;5278;42.656;23.374;2023-02-08T11:25:43;16.40;;;10.80;;
10461;SDS011;5278;42.656;23.374;2023-02-08T11:28:20;18.27;;;11.63;;
10461;SDS011;5278;42.656;23.374;2023-02-08T11:30:55;13.47;;;9.30;;
10461;SDS011;5278;42.656;23.374;2023-02-08T11:33:27;20.40;;;11.00;;
10461;SDS011;5278;42.656;23.374;2023-02-08T11:35:58;15.10;;;9.67;;
10461;SDS011;5278;42.656;23.374;2023-02-08T11:38:31;14.47;;;8.23;;
10461;SDS011;5278;42.656;23.374;2023-02-08T11:41:00;14.10;;;8.90;;
10461;SDS011;5278;42.656;23.374;2023-02-08T11:43:30;14.70;;;8.77;;
10461;SDS011;5278;42.656;23.374;2023-02-08T11:46:00;13.10;;;8.80;;
10461;SDS011;5278;42.656;23.374;2023-02-08T11:48:34;14.23;;;9.63;;
10461;SDS011;5278;42.656;23.374;2023-02-08T11:51:07;16.40;;;9.27;;
10461;SDS011;5278;42.656;23.374;2023-02-08T11:53:38;12.23;;;7.93;;
10461;SDS011;5278;42.656;23.374;2023-02-08T11:56:12;18.80;;;9.33;;
10461;SDS011;5278;42.656;23.374;2023-02-08T11:58:54;12.03;;;7.57;;
10461;SDS011;5278;42.656;23.374;2023-02-08T12:01:24;10.83;;;7.33;;
10461;SDS011;5278;42.656;23.374;2023-02-08T12:03:53;11.87;;;8.03;;
10461;SDS011;5278;42.656;23.374;2023-02-08T12:06:30;11.73;;;9.27;;
10461;SDS011;5278;42.656;23.374;2023-02-08T12:09:06;16.07;;;9.90;;
10461;SDS011;5278;42.656;23.374;2023-02-08T12:11:42;15.53;;;8.20;;
10461;SDS011;5278;42.656;23.374;2023-02-08T12:14:18;11.43;;;7.10;;
10461;SDS011;5278;42.656;23.374;2023-02-08T12:17:15;11.10;;;7.80;;
10461;SDS011;5278;42.656;23.374;2023-02-08T12:20:07;12.00;;;7.70;;
10461;SDS011;5278;42.656;23.374;2023-02-08T12:22:50;10.63;;;7.00;;
10461;SDS011;5278;42.656;23.374;2023-02-08T12:25:29;13.70;;;7.90;;
10461;SDS011;5278;42.656;23.374;2023-02-08T12:28:04;14.37;;;8.37;;
10461;SDS011;5278;42.656;23.374;2023-02-08T12:30:36;10.60;;;7.57;;
10461;SDS011;5278;42.656;23.374;2023-02-08T12:33:15;9.73;;;6.80;;
10461;SDS011;5278;42.656;23.374;2023-02-08T12:39:09;9.40;;;6.03;;
10461;SDS011;5278;42.656;23.374;2023-02-08T12:45:03;12.57;;;6.50;;
10461;SDS011;5278;42.656;23.374;2023-02-08T12:47:43;9.70;;;5.90;;
10461;SDS011;5278;42.656;23.374;2023-02-08T12:50:23;10.20;;;5.47;;
10461;SDS011;5278;42.656;23.374;2023-02-08T12:52:57;8.70;;;5.67;;
10461;SDS011;5278;42.656;23.374;2023-02-08T12:55:30;7.80;;;5.73;;
10461;SDS011;5278;42.656;23.374;2023-02-08T12:58:04;8.17;;;5.33;;
10461;SDS011;5278;42.656;23.374;2023-02-08T13:00:46;8.53;;;6.23;;
10461;SDS011;5278;42.656;23.374;2023-02-08T13:03:17;10.13;;;6.40;;
10461;SDS011;5278;42.656;23.374;2023-02-08T13:05:52;6.30;;;4.77;;
10461;SDS011;5278;42.656;23.374;2023-02-08T13:08:22;7.47;;;4.73;;
10461;SDS011;5278;42.656;23.374;2023-02-08T13:10:56;7.57;;;4.57;;
10461;SDS011;5278;42.656;23.374;2023-02-08T13:13:26;6.83;;;5.13;;
10461;SDS011;5278;42.656;23.374;2023-02-08T13:15:56;7.63;;;5.30;;
10461;SDS011;5278;42.656;23.374;2023-02-08T13:18:27;8.20;;;5.33;;
10461;SDS011;5278;42.656;23.374;2023-02-08T13:20:58;12.93;;;7.03;;
10461;SDS011;5278;42.656;23.374;2023-02-08T13:23:27;8.27;;;5.00;;
10461;SDS011;5278;42.656;23.374;2023-02-08T13:25:59;10.20;;;6.03;;
10461;SDS011;5278;42.656;23.374;2023-02-08T13:28:29;8.97;;;5.47;;
10461;SDS011;5278;42.656;23.374;2023-02-08T13:30:57;7.47;;;5.57;;
10461;SDS011;5278;42.656;23.374;2023-02-08T13:33:33;7.73;;;5.67;;
10461;SDS011;5278;42.656;23.374;2023-02-08T13:36:03;9.77;;;6.43;;
10461;SDS011;5278;42.656;23.374;2023-02-08T13:38:31;10.73;;;6.43;;
10461;SDS011;5278;42.656;23.374;2023-02-08T13:41:05;8.20;;;5.13;;
10461;SDS011;5278;42.656;23.374;2023-02-08T13:43:39;5.93;;;4.20;;
10461;SDS011;5278;42.656;23.374;2023-02-08T13:46:09;7.50;;;4.97;;
10461;SDS011;5278;42.656;23.374;2023-02-08T13:48:40;7.57;;;5.57;;
10461;SDS011;5278;42.656;23.374;2023-02-08T13:54:10;7.47;;;5.27;;
10461;SDS011;5278;42.656;23.374;2023-02-08T13:56:39;7.87;;;5.83;;
10461;SDS011;5278;42.656;23.374;2023-02-08T14:02:16;10.53;;;5.90;;
10461;SDS011;5278;42.656;23.374;2023-02-08T14:04:47;9.83;;;6.13;;
10461;SDS011;5278;42.656;23.374;2023-02-08T14:07:18;10.57;;;5.73;;
10461;SDS011;5278;42.656;23.374;2023-02-08T14:09:56;8.63;;;6.47;;
10461;SDS011;5278;42.656;23.374;2023-02-08T14:12:34;8.20;;;5.53;;
10461;SDS011;5278;42.656;23.374;2023-02-08T14:20:58;9.80;;;5.83;;
10461;SDS011;5278;42.656;23.374;2023-02-08T14:23:28;7.10;;;5.80;;
10461;SDS011;5278;42.656;23.374;2023-02-08T14:25:59;8.73;;;6.17;;
10461;SDS011;5278;42.656;23.374;2023-02-08T14:28:33;10.37;;;6.03;;
10461;SDS011;5278;42.656;23.374;2023-02-08T14:31:05;9.03;;;6.00;;
10461;SDS011;5278;42.656;23.374;2023-02-08T14:33:34;9.20;;;6.00;;
10461;SDS011;5278;42.656;23.374;2023-02-08T14:36:04;10.40;;;6.67;;
10461;SDS011;5278;42.656;23.374;2023-02-08T14:41:45;8.80;;;6.70;;
10461;SDS011;5278;42.656;23.374;2023-02-08T14:50:21;13.17;;;8.27;;
10461;SDS011;5278;42.656;23.374;2023-02-08T14:52:53;11.80;;;7.00;;
10461;SDS011;5278;42.656;23.374;2023-02-08T14:55:24;9.23;;;7.00;;
10461;SDS011;5278;42.656;23.374;2023-02-08T14:57:54;12.30;;;6.67;;
10461;SDS011;5278;42.656;23.374;2023-02-08T15:00:22;11.10;;;7.20;;
10461;SDS011;5278;42.656;23.374;2023-02-08T15:02:53;14.63;;;7.53;;
10461;SDS011;5278;42.656;23.374;2023-02-08T15:05:22;14.23;;;6.87;;
10461;SDS011;5278;42.656;23.374;2023-02-08T15:07:51;11.33;;;6.77;;
10461;SDS011;5278;42.656;23.374;2023-02-08T15:10:20;11.40;;;7.73;;
10461;SDS011;5278;42.656;23.374;2023-02-08T15:12:49;12.53;;;7.43;;
10461;SDS011;5278;42.656;23.374;2023-02-08T15:15:21;10.57;;;6.80;;
10461;SDS011;5278;42.656;23.374;2023-02-08T15:17:51;13.13;;;7.53;;
10461;SDS011;5278;42.656;23.374;2023-02-08T15:20:21;10.33;;;6.07;;
10461;SDS011;5278;42.656;23.374;2023-02-08T15:22:56;14.70;;;6.67;;
10461;SDS011;5278;42.656;23.374;2023-02-08T15:25:25;10.13;;;6.63;;